sensor_id;sensor_type;location;lat;lon;timestamp;P1;P2;P0
40947;PMS5003;49382;-25.924;28.194;2023-05-10T00:00:41;66;63;
40947;PMS5003;49382;-25.924;28.194;2023-05-10T00:03:07;60;56;
40947;PMS5003;49382;-25.924;28.194;2023-05-10T00:05:32;59;56;
40947;PMS5003;49382;-25.924;28.194;2023-05-10T00:07:57;62;59;
40947;PMS5003;49382;-25.924;28.194;2023-05-10T00:10:22;60;56;
40947;PMS5003;49382;-25.924;28.194;2023-05-10T00:12:47;54;53;
40947;PMS5003;49382;-25.924;28.194;2023-05-10T00:15:13;74;70;
40947;PMS5003;49382;-25.924;28.194;2023-05-10T00:17:38;87;86;
40947;PMS5003;49382;-25.924;28.194;2023-05-10T00:20:05;76;73;
40947;PMS5003;49382;-25.924;28.194;2023-05-10T00:22:30;75;69;
40947;PMS5003;49382;-25.924;28.194;2023-05-10T00:24:56;86;81;
40947;PMS5003;49382;-25.924;28.194;2023-05-10T00:27:21;77;73;
40947;PMS5003;49382;-25.924;28.194;2023-05-10T00:29:47;73;68;
40947;PMS5003;49382;-25.924;28.194;2023-05-10T00:32:12;75;69;
40947;PMS5003;49382;-25.924;28.194;2023-05-10T00:34:38;100;94;
40947;PMS5003;49382;-25.924;28.194;2023-05-10T00:37:04;92;86;
40947;PMS5003;49382;-25.924;28.194;2023-05-10T00:39:29;79;75;
40947;PMS5003;49382;-25.924;28.194;2023-05-10T00:41:55;103;92;
40947;PMS5003;49382;-25.924;28.194;2023-05-10T00:44:20;119;111;
40947;PMS5003;49382;-25.924;28.194;2023-05-10T00:46:46;113;110;
40947;PMS5003;49382;-25.924;28.194;2023-05-10T00:49:11;93;86;
40947;PMS5003;49382;-25.924;28.194;2023-05-10T00:51:36;73;71;
40947;PMS5003;49382;-25.924;28.194;2023-05-10T00:54:02;60;58;
40947;PMS5003;49382;-25.924;28.194;2023-05-10T00:56:28;73;66;
40947;PMS5003;49382;-25.924;28.194;2023-05-10T00:58:53;54;50;
40947;PMS5003;49382;-25.924;28.194;2023-05-10T01:01:19;45;44;
40947;PMS5003;49382;-25.924;28.194;2023-05-10T01:03:43;40;40;
40947;PMS5003;49382;-25.924;28.194;2023-05-10T01:06:09;43;43;
40947;PMS5003;49382;-25.924;28.194;2023-05-10T01:08:35;53;49;
40947;PMS5003;49382;-25.924;28.194;2023-05-10T01:11:01;64;60;
40947;PMS5003;49382;-25.924;28.194;2023-05-10T01:13:29;50;46;
40947;PMS5003;49382;-25.924;28.194;2023-05-10T01:15:52;39;38;
40947;PMS5003;49382;-25.924;28.194;2023-05-10T01:18:17;42;41;
40947;PMS5003;49382;-25.924;28.194;2023-05-10T01:20:43;44;43;
40947;PMS5003;49382;-25.924;28.194;2023-05-10T01:23:16;41;39;
40947;PMS5003;49382;-25.924;28.194;2023-05-10T01:32:51;47;45;
40947;PMS5003;49382;-25.924;28.194;2023-05-10T01:35:17;47;45;
40947;PMS5003;49382;-25.924;28.194;2023-05-10T01:37:42;48;45;
40947;PMS5003;49382;-25.924;28.194;2023-05-10T01:40:08;50;46;
40947;PMS5003;49382;-25.924;28.194;2023-05-10T01:42:33;46;45;
40947;PMS5003;49382;-25.924;28.194;2023-05-10T01:44:58;45;41;
40947;PMS5003;49382;-25.924;28.194;2023-05-10T01:47:24;42;40;
40947;PMS5003;49382;-25.924;28.194;2023-05-10T01:49:49;40;40;
40947;PMS5003;49382;-25.924;28.194;2023-05-10T01:52:14;42;41;
40947;PMS5003;49382;-25.924;28.194;2023-05-10T01:54:40;46;45;
40947;PMS5003;49382;-25.924;28.194;2023-05-10T01:57:05;44;40;
40947;PMS5003;49382;-25.924;28.194;2023-05-10T01:59:30;38;37;
40947;PMS5003;49382;-25.924;28.194;2023-05-10T02:01:55;32;32;
40947;PMS5003;49382;-25.924;28.194;2023-05-10T02:04:21;36;35;
40947;PMS5003;49382;-25.924;28.194;2023-05-10T02:06:47;37;35;
40947;PMS5003;49382;-25.924;28.194;2023-05-10T02:09:13;32;30;
40947;PMS5003;49382;-25.924;28.194;2023-05-10T02:11:38;40;37;
40947;PMS5003;49382;-25.924;28.194;2023-05-10T02:14:03;38;37;
40947;PMS5003;49382;-25.924;28.194;2023-05-10T02:16:28;36;36;
40947;PMS5003;49382;-25.924;28.194;2023-05-10T02:18:54;40;38;
40947;PMS5003;49382;-25.924;28.194;2023-05-10T02:21:19;37;36;
40947;PMS5003;49382;-25.924;28.194;2023-05-10T02:23:44;36;34;
40947;PMS5003;49382;-25.924;28.194;2023-05-10T02:26:09;34;34;
40947;PMS5003;49382;-25.924;28.194;2023-05-10T02:28:35;36;34;
40947;PMS5003;49382;-25.924;28.194;2023-05-10T02:31:00;35;34;
40947;PMS5003;49382;-25.924;28.194;2023-05-10T02:33:26;36;34;
40947;PMS5003;49382;-25.924;28.194;2023-05-10T02:35:52;35;35;
40947;PMS5003;49382;-25.924;28.194;2023-05-10T02:38:17;35;35;
40947;PMS5003;49382;-25.924;28.194;2023-05-10T02:40:43;34;31;
40947;PMS5003;49382;-25.924;28.194;2023-05-10T02:43:09;36;36;
40947;PMS5003;49382;-25.924;28.194;2023-05-10T02:45:33;41;37;
40947;PMS5003;49382;-25.924;28.194;2023-05-10T02:47:59;42;39;
40947;PMS5003;49382;-25.924;28.194;2023-05-10T02:50:25;42;38;
40947;PMS5003;49382;-25.924;28.194;2023-05-10T02:52:50;41;39;
40947;PMS5003;49382;-25.924;28.194;2023-05-10T02:55:16;39;39;
40947;PMS5003;49382;-25.924;28.194;2023-05-10T02:57:41;38;37;
40947;PMS5003;49382;-25.924;28.194;2023-05-10T03:00:07;39;39;
40947;PMS5003;49382;-25.924;28.194;2023-05-10T03:02:31;37;37;
40947;PMS5003;49382;-25.924;28.194;2023-05-10T03:04:56;42;39;
40947;PMS5003;49382;-25.924;28.194;2023-05-10T03:07:23;43;39;
40947;PMS5003;49382;-25.924;28.194;2023-05-10T03:09:47;46;43;
40947;PMS5003;49382;-25.924;28.194;2023-05-10T03:12:14;52;47;
40947;PMS5003;49382;-25.924;28.194;2023-05-10T03:14:42;55;54;
40947;PMS5003;49382;-25.924;28.194;2023-05-10T03:17:06;51;47;
40947;PMS5003;49382;-25.924;28.194;2023-05-10T03:19:30;46;42;
40947;PMS5003;49382;-25.924;28.194;2023-05-10T03:21:54;42;36;
40947;PMS5003;49382;-25.924;28.194;2023-05-10T03:24:20;45;42;
40947;PMS5003;49382;-25.924;28.194;2023-05-10T03:26:46;38;38;
40947;PMS5003;49382;-25.924;28.194;2023-05-10T03:29:11;37;36;
40947;PMS5003;49382;-25.924;28.194;2023-05-10T03:31:38;42;38;
40947;PMS5003;49382;-25.924;28.194;2023-05-10T03:34:03;42;41;
40947;PMS5003;49382;-25.924;28.194;2023-05-10T03:36:28;38;38;
40947;PMS5003;49382;-25.924;28.194;2023-05-10T03:38:54;42;41;
40947;PMS5003;49382;-25.924;28.194;2023-05-10T03:41:19;43;41;
40947;PMS5003;49382;-25.924;28.194;2023-05-10T03:43:45;37;36;
40947;PMS5003;49382;-25.924;28.194;2023-05-10T03:46:12;41;41;
40947;PMS5003;49382;-25.924;28.194;2023-05-10T03:48:36;37;37;
40947;PMS5003;49382;-25.924;28.194;2023-05-10T03:51:01;46;42;
40947;PMS5003;49382;-25.924;28.194;2023-05-10T03:53:26;43;42;
40947;PMS5003;49382;-25.924;28.194;2023-05-10T03:55:52;46;42;
40947;PMS5003;49382;-25.924;28.194;2023-05-10T03:58:17;49;44;
40947;PMS5003;49382;-25.924;28.194;2023-05-10T04:00:43;50;49;
40947;PMS5003;49382;-25.924;28.194;2023-05-10T04:03:08;74;66;
40947;PMS5003;49382;-25.924;28.194;2023-05-10T04:05:34;77;73;
40947;PMS5003;49382;-25.924;28.194;2023-05-10T04:08:00;64;63;
40947;PMS5003;49382;-25.924;28.194;2023-05-10T04:10:25;62;56;
40947;PMS5003;49382;-25.924;28.194;2023-05-10T04:12:51;58;50;
40947;PMS5003;49382;-25.924;28.194;2023-05-10T04:15:16;59;57;
40947;PMS5003;49382;-25.924;28.194;2023-05-10T04:17:42;53;49;
40947;PMS5003;49382;-25.924;28.194;2023-05-10T04:20:07;45;45;
40947;PMS5003;49382;-25.924;28.194;2023-05-10T04:22:32;47;47;
40947;PMS5003;49382;-25.924;28.194;2023-05-10T04:24:58;53;52;
40947;PMS5003;49382;-25.924;28.194;2023-05-10T04:27:23;62;54;
40947;PMS5003;49382;-25.924;28.194;2023-05-10T04:29:49;52;52;
40947;PMS5003;49382;-25.924;28.194;2023-05-10T04:32:15;64;60;
40947;PMS5003;49382;-25.924;28.194;2023-05-10T04:34:40;69;67;
40947;PMS5003;49382;-25.924;28.194;2023-05-10T04:37:05;74;68;
40947;PMS5003;49382;-25.924;28.194;2023-05-10T04:39:31;62;60;
40947;PMS5003;49382;-25.924;28.194;2023-05-10T04:41:57;70;67;
40947;PMS5003;49382;-25.924;28.194;2023-05-10T04:44:22;69;66;
40947;PMS5003;49382;-25.924;28.194;2023-05-10T04:46:47;68;62;
40947;PMS5003;49382;-25.924;28.194;2023-05-10T04:49:13;62;61;
40947;PMS5003;49382;-25.924;28.194;2023-05-10T04:51:39;69;68;
40947;PMS5003;49382;-25.924;28.194;2023-05-10T04:54:04;84;78;
40947;PMS5003;49382;-25.924;28.194;2023-05-10T04:56:30;74;70;
40947;PMS5003;49382;-25.924;28.194;2023-05-10T04:58:56;77;72;
40947;PMS5003;49382;-25.924;28.194;2023-05-10T05:01:21;89;81;
40947;PMS5003;49382;-25.924;28.194;2023-05-10T05:03:46;87;81;
40947;PMS5003;49382;-25.924;28.194;2023-05-10T05:06:12;82;78;
40947;PMS5003;49382;-25.924;28.194;2023-05-10T05:08:37;88;77;
40947;PMS5003;49382;-25.924;28.194;2023-05-10T05:11:03;80;79;
40947;PMS5003;49382;-25.924;28.194;2023-05-10T05:13:28;77;72;
40947;PMS5003;49382;-25.924;28.194;2023-05-10T05:15:53;74;71;
40947;PMS5003;49382;-25.924;28.194;2023-05-10T05:18:19;70;68;
40947;PMS5003;49382;-25.924;28.194;2023-05-10T05:20:44;68;64;
40947;PMS5003;49382;-25.924;28.194;2023-05-10T05:23:13;66;64;
40947;PMS5003;49382;-25.924;28.194;2023-05-10T05:25:36;66;64;
40947;PMS5003;49382;-25.924;28.194;2023-05-10T05:28:01;70;64;
40947;PMS5003;49382;-25.924;28.194;2023-05-10T05:30:27;72;68;
40947;PMS5003;49382;-25.924;28.194;2023-05-10T05:32:53;77;71;
40947;PMS5003;49382;-25.924;28.194;2023-05-10T05:35:18;70;69;
40947;PMS5003;49382;-25.924;28.194;2023-05-10T05:37:44;73;73;
40947;PMS5003;49382;-25.924;28.194;2023-05-10T05:40:12;74;72;
40947;PMS5003;49382;-25.924;28.194;2023-05-10T05:42:34;71;70;
40947;PMS5003;49382;-25.924;28.194;2023-05-10T05:45:00;76;72;
40947;PMS5003;49382;-25.924;28.194;2023-05-10T05:47:25;74;73;
40947;PMS5003;49382;-25.924;28.194;2023-05-10T05:49:50;78;72;
40947;PMS5003;49382;-25.924;28.194;2023-05-10T05:52:16;82;75;
40947;PMS5003;49382;-25.924;28.194;2023-05-10T05:54:41;72;70;
40947;PMS5003;49382;-25.924;28.194;2023-05-10T05:59:32;66;64;
40947;PMS5003;49382;-25.924;28.194;2023-05-10T06:01:57;68;65;
40947;PMS5003;49382;-25.924;28.194;2023-05-10T06:04:23;65;60;
40947;PMS5003;49382;-25.924;28.194;2023-05-10T06:06:48;62;60;
40947;PMS5003;49382;-25.924;28.194;2023-05-10T06:09:14;66;62;
40947;PMS5003;49382;-25.924;28.194;2023-05-10T06:11:39;60;59;
40947;PMS5003;49382;-25.924;28.194;2023-05-10T06:14:05;57;54;
40947;PMS5003;49382;-25.924;28.194;2023-05-10T06:16:30;60;57;
40947;PMS5003;49382;-25.924;28.194;2023-05-10T06:18:56;58;55;
40947;PMS5003;49382;-25.924;28.194;2023-05-10T06:21:21;58;54;
40947;PMS5003;49382;-25.924;28.194;2023-05-10T06:23:46;63;57;
40947;PMS5003;49382;-25.924;28.194;2023-05-10T06:26:12;61;57;
40947;PMS5003;49382;-25.924;28.194;2023-05-10T06:28:37;59;57;
40947;PMS5003;49382;-25.924;28.194;2023-05-10T06:31:03;62;57;
40947;PMS5003;49382;-25.924;28.194;2023-05-10T06:33:29;61;55;
40947;PMS5003;49382;-25.924;28.194;2023-05-10T06:35:54;53;51;
40947;PMS5003;49382;-25.924;28.194;2023-05-10T06:38:19;49;48;
40947;PMS5003;49382;-25.924;28.194;2023-05-10T06:40:45;56;56;
40947;PMS5003;49382;-25.924;28.194;2023-05-10T06:43:11;54;52;
40947;PMS5003;49382;-25.924;28.194;2023-05-10T06:45:36;50;49;
40947;PMS5003;49382;-25.924;28.194;2023-05-10T06:48:01;56;51;
40947;PMS5003;49382;-25.924;28.194;2023-05-10T06:50:27;43;41;
40947;PMS5003;49382;-25.924;28.194;2023-05-10T06:52:52;55;51;
40947;PMS5003;49382;-25.924;28.194;2023-05-10T06:55:17;50;48;
40947;PMS5003;49382;-25.924;28.194;2023-05-10T06:57:43;48;46;
40947;PMS5003;49382;-25.924;28.194;2023-05-10T07:00:09;47;46;
40947;PMS5003;49382;-25.924;28.194;2023-05-10T07:02:34;50;46;
40947;PMS5003;49382;-25.924;28.194;2023-05-10T07:04:59;51;47;
40947;PMS5003;49382;-25.924;28.194;2023-05-10T07:07:25;49;43;
40947;PMS5003;49382;-25.924;28.194;2023-05-10T07:09:50;43;42;
40947;PMS5003;49382;-25.924;28.194;2023-05-10T07:12:15;43;42;
40947;PMS5003;49382;-25.924;28.194;2023-05-10T07:14:41;39;37;
40947;PMS5003;49382;-25.924;28.194;2023-05-10T07:17:06;32;30;
40947;PMS5003;49382;-25.924;28.194;2023-05-10T07:19:31;24;23;
40947;PMS5003;49382;-25.924;28.194;2023-05-10T07:21:57;20;19;
40947;PMS5003;49382;-25.924;28.194;2023-05-10T07:24:23;13;13;
40947;PMS5003;49382;-25.924;28.194;2023-05-10T07:26:49;10;10;
40947;PMS5003;49382;-25.924;28.194;2023-05-10T07:29:14;14;14;
40947;PMS5003;49382;-25.924;28.194;2023-05-10T07:31:40;17;17;
40947;PMS5003;49382;-25.924;28.194;2023-05-10T07:34:06;21;19;
40947;PMS5003;49382;-25.924;28.194;2023-05-10T07:36:33;23;23;
40947;PMS5003;49382;-25.924;28.194;2023-05-10T07:38:57;20;20;
40947;PMS5003;49382;-25.924;28.194;2023-05-10T07:41:23;21;21;
40947;PMS5003;49382;-25.924;28.194;2023-05-10T07:43:49;45;44;
40947;PMS5003;49382;-25.924;28.194;2023-05-10T07:46:14;25;25;
40947;PMS5003;49382;-25.924;28.194;2023-05-10T07:48:40;30;30;
40947;PMS5003;49382;-25.924;28.194;2023-05-10T07:51:06;18;18;
40947;PMS5003;49382;-25.924;28.194;2023-05-10T07:53:31;20;20;
40947;PMS5003;49382;-25.924;28.194;2023-05-10T07:55:57;23;22;
40947;PMS5003;49382;-25.924;28.194;2023-05-10T07:58:23;19;19;
40947;PMS5003;49382;-25.924;28.194;2023-05-10T08:00:48;18;18;
40947;PMS5003;49382;-25.924;28.194;2023-05-10T08:03:14;17;17;
40947;PMS5003;49382;-25.924;28.194;2023-05-10T08:05:40;19;19;
40947;PMS5003;49382;-25.924;28.194;2023-05-10T08:08:05;18;18;
40947;PMS5003;49382;-25.924;28.194;2023-05-10T08:10:31;17;17;
40947;PMS5003;49382;-25.924;28.194;2023-05-10T08:12:56;18;17;
40947;PMS5003;49382;-25.924;28.194;2023-05-10T08:15:23;15;15;
40947;PMS5003;49382;-25.924;28.194;2023-05-10T08:17:48;19;19;
40947;PMS5003;49382;-25.924;28.194;2023-05-10T08:20:13;23;23;
40947;PMS5003;49382;-25.924;28.194;2023-05-10T08:22:39;41;41;
40947;PMS5003;49382;-25.924;28.194;2023-05-10T08:25:05;18;18;
40947;PMS5003;49382;-25.924;28.194;2023-05-10T08:27:30;21;20;
40947;PMS5003;49382;-25.924;28.194;2023-05-10T08:29:56;19;17;
40947;PMS5003;49382;-25.924;28.194;2023-05-10T08:32:21;20;19;
40947;PMS5003;49382;-25.924;28.194;2023-05-10T08:34:47;19;18;
40947;PMS5003;49382;-25.924;28.194;2023-05-10T08:37:12;19;18;
40947;PMS5003;49382;-25.924;28.194;2023-05-10T08:39:38;22;20;
40947;PMS5003;49382;-25.924;28.194;2023-05-10T08:42:04;20;19;
40947;PMS5003;49382;-25.924;28.194;2023-05-10T08:44:29;25;25;
40947;PMS5003;49382;-25.924;28.194;2023-05-10T08:46:55;20;20;
40947;PMS5003;49382;-25.924;28.194;2023-05-10T08:49:20;22;21;
40947;PMS5003;49382;-25.924;28.194;2023-05-10T08:51:47;22;21;
40947;PMS5003;49382;-25.924;28.194;2023-05-10T08:54:11;59;59;
40947;PMS5003;49382;-25.924;28.194;2023-05-10T08:56:37;22;21;
40947;PMS5003;49382;-25.924;28.194;2023-05-10T08:59:02;19;19;
40947;PMS5003;49382;-25.924;28.194;2023-05-10T09:01:28;24;21;
40947;PMS5003;49382;-25.924;28.194;2023-05-10T09:03:53;19;19;
40947;PMS5003;49382;-25.924;28.194;2023-05-10T09:06:18;32;29;
40947;PMS5003;49382;-25.924;28.194;2023-05-10T09:08:43;20;19;
40947;PMS5003;49382;-25.924;28.194;2023-05-10T09:11:09;22;20;
40947;PMS5003;49382;-25.924;28.194;2023-05-10T09:13:34;22;20;
40947;PMS5003;49382;-25.924;28.194;2023-05-10T09:16:00;33;30;
40947;PMS5003;49382;-25.924;28.194;2023-05-10T09:18:25;54;51;
40947;PMS5003;49382;-25.924;28.194;2023-05-10T09:20:50;96;92;
40947;PMS5003;49382;-25.924;28.194;2023-05-10T09:23:15;19;19;
40947;PMS5003;49382;-25.924;28.194;2023-05-10T09:25:41;19;19;
40947;PMS5003;49382;-25.924;28.194;2023-05-10T09:28:07;18;18;
40947;PMS5003;49382;-25.924;28.194;2023-05-10T09:30:33;17;17;
40947;PMS5003;49382;-25.924;28.194;2023-05-10T09:32:59;14;14;
40947;PMS5003;49382;-25.924;28.194;2023-05-10T09:35:25;16;15;
40947;PMS5003;49382;-25.924;28.194;2023-05-10T09:37:50;13;13;
40947;PMS5003;49382;-25.924;28.194;2023-05-10T09:40:16;20;19;
40947;PMS5003;49382;-25.924;28.194;2023-05-10T09:42:42;18;18;
40947;PMS5003;49382;-25.924;28.194;2023-05-10T09:45:07;23;23;
40947;PMS5003;49382;-25.924;28.194;2023-05-10T09:47:33;18;16;
40947;PMS5003;49382;-25.924;28.194;2023-05-10T09:49:59;17;17;
40947;PMS5003;49382;-25.924;28.194;2023-05-10T09:52:24;20;19;
40947;PMS5003;49382;-25.924;28.194;2023-05-10T09:54:52;20;20;
40947;PMS5003;49382;-25.924;28.194;2023-05-10T09:57:19;20;20;
40947;PMS5003;49382;-25.924;28.194;2023-05-10T09:59:42;17;17;
40947;PMS5003;49382;-25.924;28.194;2023-05-10T10:02:07;21;21;
40947;PMS5003;49382;-25.924;28.194;2023-05-10T10:04:33;24;21;
40947;PMS5003;49382;-25.924;28.194;2023-05-10T10:06:59;18;18;
40947;PMS5003;49382;-25.924;28.194;2023-05-10T10:09:24;21;21;
40947;PMS5003;49382;-25.924;28.194;2023-05-10T10:11:50;21;20;
40947;PMS5003;49382;-25.924;28.194;2023-05-10T10:14:16;20;19;
40947;PMS5003;49382;-25.924;28.194;2023-05-10T10:16:41;19;17;
40947;PMS5003;49382;-25.924;28.194;2023-05-10T10:19:06;19;18;
40947;PMS5003;49382;-25.924;28.194;2023-05-10T10:21:31;15;15;
40947;PMS5003;49382;-25.924;28.194;2023-05-10T10:23:57;17;17;
40947;PMS5003;49382;-25.924;28.194;2023-05-10T10:26:23;19;19;
40947;PMS5003;49382;-25.924;28.194;2023-05-10T10:28:51;23;23;
40947;PMS5003;49382;-25.924;28.194;2023-05-10T10:31:17;23;23;
40947;PMS5003;49382;-25.924;28.194;2023-05-10T10:33:46;21;21;
40947;PMS5003;49382;-25.924;28.194;2023-05-10T10:36:06;22;22;
40947;PMS5003;49382;-25.924;28.194;2023-05-10T10:41:02;22;22;
40947;PMS5003;49382;-25.924;28.194;2023-05-10T10:43:23;24;23;
40947;PMS5003;49382;-25.924;28.194;2023-05-10T10:55:29;18;16;
40947;PMS5003;49382;-25.924;28.194;2023-05-10T10:57:56;35;35;
40947;PMS5003;49382;-25.924;28.194;2023-05-10T11:00:22;30;28;
40947;PMS5003;49382;-25.924;28.194;2023-05-10T11:02:46;27;24;
40947;PMS5003;49382;-25.924;28.194;2023-05-10T11:07:37;22;17;
40947;PMS5003;49382;-25.924;28.194;2023-05-10T11:10:04;44;44;
40947;PMS5003;49382;-25.924;28.194;2023-05-10T11:12:28;23;20;
40947;PMS5003;49382;-25.924;28.194;2023-05-10T11:14:56;22;18;
40947;PMS5003;49382;-25.924;28.194;2023-05-10T11:17:24;19;18;
40947;PMS5003;49382;-25.924;28.194;2023-05-10T11:22:12;22;22;
40947;PMS5003;49382;-25.924;28.194;2023-05-10T11:24:37;22;22;
40947;PMS5003;49382;-25.924;28.194;2023-05-10T11:27:02;25;25;
40947;PMS5003;49382;-25.924;28.194;2023-05-10T11:29:28;22;22;
40947;PMS5003;49382;-25.924;28.194;2023-05-10T11:31:56;26;25;
40947;PMS5003;49382;-25.924;28.194;2023-05-10T11:34:23;25;24;
40947;PMS5003;49382;-25.924;28.194;2023-05-10T11:36:46;24;24;
40947;PMS5003;49382;-25.924;28.194;2023-05-10T11:39:11;21;21;
40947;PMS5003;49382;-25.924;28.194;2023-05-10T11:41:37;20;20;
40947;PMS5003;49382;-25.924;28.194;2023-05-10T11:44:02;20;20;
40947;PMS5003;49382;-25.924;28.194;2023-05-10T11:46:28;18;16;
40947;PMS5003;49382;-25.924;28.194;2023-05-10T11:48:55;19;18;
40947;PMS5003;49382;-25.924;28.194;2023-05-10T11:51:20;20;20;
40947;PMS5003;49382;-25.924;28.194;2023-05-10T11:53:45;20;20;
40947;PMS5003;49382;-25.924;28.194;2023-05-10T11:56:12;20;20;
40947;PMS5003;49382;-25.924;28.194;2023-05-10T11:58:37;20;18;
40947;PMS5003;49382;-25.924;28.194;2023-05-10T12:01:03;20;20;
40947;PMS5003;49382;-25.924;28.194;2023-05-10T12:03:28;18;17;
40947;PMS5003;49382;-25.924;28.194;2023-05-10T12:05:54;19;19;
40947;PMS5003;49382;-25.924;28.194;2023-05-10T12:08:20;18;18;
40947;PMS5003;49382;-25.924;28.194;2023-05-10T12:10:45;19;18;
40947;PMS5003;49382;-25.924;28.194;2023-05-10T12:13:12;22;19;
40947;PMS5003;49382;-25.924;28.194;2023-05-10T12:15:36;17;17;
40947;PMS5003;49382;-25.924;28.194;2023-05-10T12:18:01;17;17;
40947;PMS5003;49382;-25.924;28.194;2023-05-10T12:20:27;18;18;
40947;PMS5003;49382;-25.924;28.194;2023-05-10T12:22:54;18;17;
40947;PMS5003;49382;-25.924;28.194;2023-05-10T12:25:19;18;17;
40947;PMS5003;49382;-25.924;28.194;2023-05-10T12:27:49;20;19;
40947;PMS5003;49382;-25.924;28.194;2023-05-10T12:30:11;16;16;
40947;PMS5003;49382;-25.924;28.194;2023-05-10T12:32:37;16;15;
40947;PMS5003;49382;-25.924;28.194;2023-05-10T12:35:03;18;17;
40947;PMS5003;49382;-25.924;28.194;2023-05-10T12:37:27;24;20;
40947;PMS5003;49382;-25.924;28.194;2023-05-10T12:39:52;18;18;
40947;PMS5003;49382;-25.924;28.194;2023-05-10T12:42:18;17;17;
40947;PMS5003;49382;-25.924;28.194;2023-05-10T12:44:44;16;15;
40947;PMS5003;49382;-25.924;28.194;2023-05-10T12:47:09;17;17;
40947;PMS5003;49382;-25.924;28.194;2023-05-10T12:49:35;19;17;
40947;PMS5003;49382;-25.924;28.194;2023-05-10T12:52:01;20;18;
40947;PMS5003;49382;-25.924;28.194;2023-05-10T12:54:27;16;16;
40947;PMS5003;49382;-25.924;28.194;2023-05-10T12:56:52;20;17;
40947;PMS5003;49382;-25.924;28.194;2023-05-10T12:59:18;17;17;
40947;PMS5003;49382;-25.924;28.194;2023-05-10T13:01:44;19;17;
40947;PMS5003;49382;-25.924;28.194;2023-05-10T13:04:10;16;14;
40947;PMS5003;49382;-25.924;28.194;2023-05-10T13:06:36;20;18;
40947;PMS5003;49382;-25.924;28.194;2023-05-10T13:09:01;15;15;
40947;PMS5003;49382;-25.924;28.194;2023-05-10T13:11:27;19;18;
40947;PMS5003;49382;-25.924;28.194;2023-05-10T13:13:53;16;15;
40947;PMS5003;49382;-25.924;28.194;2023-05-10T13:16:18;16;15;
40947;PMS5003;49382;-25.924;28.194;2023-05-10T13:18:44;17;17;
40947;PMS5003;49382;-25.924;28.194;2023-05-10T13:21:10;14;14;
40947;PMS5003;49382;-25.924;28.194;2023-05-10T13:23:36;16;16;
40947;PMS5003;49382;-25.924;28.194;2023-05-10T13:26:02;14;14;
40947;PMS5003;49382;-25.924;28.194;2023-05-10T13:28:28;16;15;
40947;PMS5003;49382;-25.924;28.194;2023-05-10T13:30:53;17;17;
40947;PMS5003;49382;-25.924;28.194;2023-05-10T13:33:19;15;15;
40947;PMS5003;49382;-25.924;28.194;2023-05-10T13:35:45;16;15;
40947;PMS5003;49382;-25.924;28.194;2023-05-10T13:38:11;13;13;
40947;PMS5003;49382;-25.924;28.194;2023-05-10T13:40:36;14;14;
40947;PMS5003;49382;-25.924;28.194;2023-05-10T13:43:02;16;15;
40947;PMS5003;49382;-25.924;28.194;2023-05-10T13:45:28;15;15;
40947;PMS5003;49382;-25.924;28.194;2023-05-10T13:47:54;15;15;
40947;PMS5003;49382;-25.924;28.194;2023-05-10T13:50:19;15;15;
40947;PMS5003;49382;-25.924;28.194;2023-05-10T13:52:45;14;14;
40947;PMS5003;49382;-25.924;28.194;2023-05-10T13:55:12;14;14;
40947;PMS5003;49382;-25.924;28.194;2023-05-10T13:57:36;17;16;
40947;PMS5003;49382;-25.924;28.194;2023-05-10T14:00:03;16;16;
40947;PMS5003;49382;-25.924;28.194;2023-05-10T14:02:28;15;15;
40947;PMS5003;49382;-25.924;28.194;2023-05-10T14:04:54;16;16;
40947;PMS5003;49382;-25.924;28.194;2023-05-10T14:07:20;15;15;
40947;PMS5003;49382;-25.924;28.194;2023-05-10T14:09:46;18;18;
40947;PMS5003;49382;-25.924;28.194;2023-05-10T14:12:12;15;15;
40947;PMS5003;49382;-25.924;28.194;2023-05-10T14:14:37;14;13;
40947;PMS5003;49382;-25.924;28.194;2023-05-10T14:17:03;12;12;
40947;PMS5003;49382;-25.924;28.194;2023-05-10T14:19:28;13;13;
40947;PMS5003;49382;-25.924;28.194;2023-05-10T14:21:54;13;13;
40947;PMS5003;49382;-25.924;28.194;2023-05-10T14:24:20;11;11;
40947;PMS5003;49382;-25.924;28.194;2023-05-10T14:26:46;15;14;
40947;PMS5003;49382;-25.924;28.194;2023-05-10T14:29:12;12;12;
40947;PMS5003;49382;-25.924;28.194;2023-05-10T14:31:37;14;14;
40947;PMS5003;49382;-25.924;28.194;2023-05-10T14:34:03;29;29;
40947;PMS5003;49382;-25.924;28.194;2023-05-10T14:36:29;16;16;
40947;PMS5003;49382;-25.924;28.194;2023-05-10T14:38:55;12;12;
40947;PMS5003;49382;-25.924;28.194;2023-05-10T14:41:21;10;9;
40947;PMS5003;49382;-25.924;28.194;2023-05-10T14:43:47;12;12;
40947;PMS5003;49382;-25.924;28.194;2023-05-10T14:46:13;11;11;
40947;PMS5003;49382;-25.924;28.194;2023-05-10T14:48:38;10;10;
40947;PMS5003;49382;-25.924;28.194;2023-05-10T14:51:04;12;12;
40947;PMS5003;49382;-25.924;28.194;2023-05-10T14:53:30;10;10;
40947;PMS5003;49382;-25.924;28.194;2023-05-10T14:55:56;15;15;
40947;PMS5003;49382;-25.924;28.194;2023-05-10T14:58:22;10;10;
40947;PMS5003;49382;-25.924;28.194;2023-05-10T15:00:47;8;8;
40947;PMS5003;49382;-25.924;28.194;2023-05-10T15:03:13;10;10;
40947;PMS5003;49382;-25.924;28.194;2023-05-10T15:05:39;12;11;
40947;PMS5003;49382;-25.924;28.194;2023-05-10T15:08:05;11;11;
40947;PMS5003;49382;-25.924;28.194;2023-05-10T15:10:31;10;10;
40947;PMS5003;49382;-25.924;28.194;2023-05-10T15:12:56;10;10;
40947;PMS5003;49382;-25.924;28.194;2023-05-10T15:15:22;12;11;
40947;PMS5003;49382;-25.924;28.194;2023-05-10T15:17:48;9;9;
40947;PMS5003;49382;-25.924;28.194;2023-05-10T15:20:14;12;12;
40947;PMS5003;49382;-25.924;28.194;2023-05-10T15:22:40;11;11;
40947;PMS5003;49382;-25.924;28.194;2023-05-10T15:25:06;10;10;
40947;PMS5003;49382;-25.924;28.194;2023-05-10T15:27:31;10;10;
40947;PMS5003;49382;-25.924;28.194;2023-05-10T15:29:57;10;10;
40947;PMS5003;49382;-25.924;28.194;2023-05-10T15:32:23;12;12;
40947;PMS5003;49382;-25.924;28.194;2023-05-10T15:34:49;12;12;
40947;PMS5003;49382;-25.924;28.194;2023-05-10T15:37:15;12;12;
40947;PMS5003;49382;-25.924;28.194;2023-05-10T15:39:41;13;13;
40947;PMS5003;49382;-25.924;28.194;2023-05-10T15:42:06;11;11;
40947;PMS5003;49382;-25.924;28.194;2023-05-10T15:44:32;12;12;
40947;PMS5003;49382;-25.924;28.194;2023-05-10T15:46:58;18;18;
40947;PMS5003;49382;-25.924;28.194;2023-05-10T15:49:24;16;16;
40947;PMS5003;49382;-25.924;28.194;2023-05-10T15:51:49;23;22;
40947;PMS5003;49382;-25.924;28.194;2023-05-10T15:54:14;17;17;
40947;PMS5003;49382;-25.924;28.194;2023-05-10T15:56:39;21;21;
40947;PMS5003;49382;-25.924;28.194;2023-05-10T15:59:05;18;17;
40947;PMS5003;49382;-25.924;28.194;2023-05-10T16:01:30;21;21;